NJE783 LDSP-LICR
Flight info
| Callsign | NJE783 |
|---|---|
| Flight time | N/A |
| Altitude | 19000 |
| Route | RILIM L862 AIOSA/N0457F410 DCT SIRGI DCT CDC/N0394F190 L869 PEROS |
| Aircraft | CL60/M-SBDE1E2E3FGHIJ1J4J5J7M3RWXYZ/LB1V1D1 |
Departure
| Time | N/A |
|---|---|
| Airport | Split Saint Jerome Airport (LDSP) |
Arrival
| Time | 2026-04-21 03:10 |
|---|---|
| Airport | Reggio Calabria Airport (LICR) |
| Time | Latitude | Longitude | Altitude | Speed | Heading |
|---|---|---|---|---|---|
| 2026-04-21 02:56 | 38.46999 | 15.76759 | 15694 ft | 318 kts | 198° |
| 2026-04-21 02:56 | 38.44861 | 15.76090 | 15282 ft | 317 kts | 198° |
| 2026-04-21 02:57 | 38.42701 | 15.75415 | 14860 ft | 315 kts | 198° |
| 2026-04-21 02:57 | 38.40564 | 15.74747 | 14451 ft | 313 kts | 198° |
| 2026-04-21 02:57 | 38.38457 | 15.74089 | 14023 ft | 312 kts | 198° |
| 2026-04-21 02:57 | 38.36338 | 15.73428 | 13618 ft | 309 kts | 198° |
| 2026-04-21 02:58 | 38.34262 | 15.72780 | 13206 ft | 306 kts | 198° |
| 2026-04-21 02:58 | 38.32193 | 15.72135 | 12805 ft | 303 kts | 198° |
| 2026-04-21 02:58 | 38.30159 | 15.71501 | 12409 ft | 301 kts | 197° |
| 2026-04-21 02:58 | 38.28108 | 15.70862 | 12020 ft | 298 kts | 197° |
| 2026-04-21 02:59 | 38.26094 | 15.70235 | 11594 ft | 294 kts | 197° |
| 2026-04-21 02:59 | 38.24127 | 15.69624 | 11227 ft | 288 kts | 197° |
| 2026-04-21 02:59 | 38.22192 | 15.69023 | 10866 ft | 285 kts | 197° |
| 2026-04-21 02:59 | 38.20261 | 15.68422 | 10433 ft | 280 kts | 197° |
| 2026-04-21 03:00 | 38.18384 | 15.67840 | 10104 ft | 275 kts | 197° |
| 2026-04-21 03:00 | 38.16526 | 15.67262 | 9734 ft | 269 kts | 196° |
| 2026-04-21 03:00 | 38.14735 | 15.66707 | 9387 ft | 263 kts | 196° |
| 2026-04-21 03:00 | 38.12948 | 15.66153 | 9036 ft | 258 kts | 196° |
| 2026-04-21 03:01 | 38.11236 | 15.65622 | 8700 ft | 253 kts | 196° |
| 2026-04-21 03:01 | 38.09541 | 15.65097 | 8367 ft | 248 kts | 196° |
| 2026-04-21 03:01 | 38.07890 | 15.64532 | 8040 ft | 241 kts | 205° |
| 2026-04-21 03:01 | 38.06517 | 15.63397 | 7721 ft | 233 kts | 222° |
| 2026-04-21 03:02 | 38.05264 | 15.62105 | 7417 ft | 228 kts | 221° |
| 2026-04-21 03:02 | 38.04049 | 15.60870 | 7119 ft | 224 kts | 221° |
| 2026-04-21 03:02 | 38.02824 | 15.59624 | 6819 ft | 220 kts | 221° |
| 2026-04-21 03:02 | 38.01644 | 15.58426 | 6531 ft | 216 kts | 221° |
| 2026-04-21 03:03 | 38.00472 | 15.57236 | 6248 ft | 211 kts | 221° |
| 2026-04-21 03:03 | 37.99325 | 15.56073 | 5955 ft | 206 kts | 221° |
| 2026-04-21 03:03 | 37.98206 | 15.54974 | 5705 ft | 204 kts | 214° |
| 2026-04-21 03:03 | 37.96836 | 15.54446 | 5376 ft | 201 kts | 187° |
| 2026-04-21 03:04 | 37.95462 | 15.54329 | 5168 ft | 199 kts | 186° |
| 2026-04-21 03:04 | 37.94046 | 15.54200 | 4866 ft | 202 kts | 186° |
| 2026-04-21 03:04 | 37.92644 | 15.54088 | 4596 ft | 201 kts | 182° |
| 2026-04-21 03:04 | 37.91274 | 15.54506 | 4246 ft | 204 kts | 153° |
| 2026-04-21 03:05 | 37.90251 | 15.55721 | 3879 ft | 202 kts | 121° |
| 2026-04-21 03:05 | 37.89877 | 15.57389 | 3498 ft | 199 kts | 92° |
| 2026-04-21 03:05 | 37.90067 | 15.59099 | 3086 ft | 191 kts | 70° |
| 2026-04-21 03:05 | 37.90773 | 15.60400 | 3003 ft | 169 kts | 40° |
| 2026-04-21 03:06 | 37.91769 | 15.61161 | 3009 ft | 168 kts | 22° |
| 2026-04-21 03:06 | 37.92876 | 15.61654 | 2997 ft | 167 kts | 17° |
| 2026-04-21 03:06 | 37.94001 | 15.62120 | 2953 ft | 169 kts | 18° |
| 2026-04-21 03:06 | 37.95134 | 15.62598 | 2660 ft | 163 kts | 18° |
| 2026-04-21 03:07 | 37.96153 | 15.63020 | 2460 ft | 144 kts | 17° |
| 2026-04-21 03:07 | 37.97104 | 15.63407 | 2244 ft | 139 kts | 17° |
| 2026-04-21 03:07 | 37.98013 | 15.63779 | 2043 ft | 133 kts | 17° |
| 2026-04-21 03:07 | 37.98893 | 15.64138 | 1829 ft | 132 kts | 18° |
| 2026-04-21 03:08 | 37.99768 | 15.64497 | 1636 ft | 131 kts | 18° |
| 2026-04-21 03:08 | 38.00651 | 15.64844 | 1478 ft | 131 kts | 18° |
| 2026-04-21 03:08 | 38.01541 | 15.65168 | 1368 ft | 132 kts | 15° |
| 2026-04-21 03:08 | 38.02422 | 15.65457 | 1222 ft | 131 kts | 14° |
| 2026-04-21 03:09 | 38.03331 | 15.65729 | 963 ft | 132 kts | 14° |
| 2026-04-21 03:09 | 38.04230 | 15.65977 | 732 ft | 132 kts | 8° |
| 2026-04-21 03:09 | 38.05138 | 15.66070 | 511 ft | 129 kts | 360° |
| 2026-04-21 03:09 | 38.06024 | 15.65850 | 269 ft | 129 kts | 337° |
| 2026-04-21 03:10 | 38.06829 | 15.65343 | 55 ft | 126 kts | 334° |
| 2026-04-21 03:10 | 38.07497 | 15.64911 | 67 ft | 70 kts | 331° |
| 2026-04-21 03:10 | 38.07786 | 15.64722 | 81 ft | 28 kts | 333° |
| 2026-04-21 03:10 | 38.07960 | 15.64611 | 86 ft | 27 kts | 334° |
| 2026-04-21 03:11 | 38.08109 | 15.64538 | 89 ft | 19 kts | 333° |
| 2026-04-21 03:11 | 38.08089 | 15.64516 | 87 ft | 15 kts | 143° |
| 2026-04-21 03:11 | 38.07962 | 15.64609 | 86 ft | 26 kts | 152° |
| 2026-04-21 03:11 | 38.07775 | 15.64732 | 81 ft | 32 kts | 153° |
| 2026-04-21 03:12 | 38.07552 | 15.64875 | 69 ft | 38 kts | 153° |
| 2026-04-21 03:12 | 38.07406 | 15.64972 | 62 ft | 9 kts | 153° |
| 2026-04-21 03:12 | 38.07407 | 15.65055 | 63 ft | 6 kts | 63° |
| 2026-04-21 03:12 | 38.07424 | 15.65082 | 64 ft | 3 kts | 7° |
| 2026-04-21 03:13 | 38.07450 | 15.65094 | 66 ft | 5 kts | 64° |
| 2026-04-21 03:13 | 38.07456 | 15.65120 | 67 ft | 3 kts | 112° |
| 2026-04-21 03:13 | 38.07444 | 15.65123 | 66 ft | 0 kts | 217° |
| 2026-04-21 03:13 | 38.07442 | 15.65121 | 66 ft | 0 kts | 208° |